Time;durP1;ratioP1;P1;durP2;ratioP2;P2;SDS_P1;SDS_P2;PMS_P1;PMS_P2;Temp;Humidity;BMP_temperature;BMP_pressure;BME280_temperature;BME280_humidity;BME280_pressure;Samples;Min_cycle;Max_cycle;Signal;HPM_P1;HPM_P2
2022/10/18 00:01:52;;;;;;;63.60;29.95;;;14.30;99.90;;;;;;4864600;29;20487;-85
2022/10/18 00:04:18;;;;;;;76.45;32.13;;;14.10;99.90;;;;;;4874420;29;20058;-86
2022/10/18 00:06:43;;;;;;;170.43;41.08;;;14.10;99.90;;;;;;4857074;29;20131;-85
2022/10/18 00:09:10;;;;;;;61.92;29.63;;;14.10;99.90;;;;;;4860856;29;20044;-85
2022/10/18 00:11:39;;;;;;;117.00;35.83;;;14.00;99.90;;;;;;4873125;29;20127;-86
2022/10/18 00:14:04;;;;;;;62.63;29.55;;;14.00;99.90;;;;;;4859569;29;20087;-85
2022/10/18 00:16:30;;;;;;;191.95;34.58;;;13.90;99.90;;;;;;4859510;29;20491;-85
2022/10/18 00:18:56;;;;;;;169.95;33.35;;;14.00;99.90;;;;;;4873630;29;20041;-86
2022/10/18 00:21:23;;;;;;;205.00;42.17;;;13.90;99.90;;;;;;4857830;29;20083;-85
2022/10/18 00:23:50;;;;;;;68.65;29.65;;;13.90;99.90;;;;;;4858466;29;20395;-86
2022/10/18 00:26:20;;;;;;;69.70;29.83;;;13.80;99.90;;;;;;4871772;29;20041;-85
2022/10/18 00:28:48;;;;;;;112.40;33.92;;;13.80;99.90;;;;;;4887948;29;20047;-85
2022/10/18 00:31:22;;;;;;;75.85;29.83;;;13.80;99.90;;;;;;4875537;29;20173;-86
2022/10/18 00:33:51;;;;;;;69.63;30.13;;;13.90;99.90;;;;;;4872388;29;20484;-85
2022/10/18 00:36:17;;;;;;;62.08;29.60;;;13.80;99.90;;;;;;4898879;29;20492;-85
2022/10/18 00:38:43;;;;;;;85.75;32.67;;;13.80;99.90;;;;;;4891437;29;20040;-85
2022/10/18 00:41:12;;;;;;;81.25;32.63;;;13.90;99.90;;;;;;4858594;29;20041;-85
2022/10/18 00:43:53;;;;;;;71.90;32.38;;;13.80;99.90;;;;;;4861846;29;20047;-85
2022/10/18 00:46:19;;;;;;;114.95;36.85;;;13.90;99.90;;;;;;4874443;29;20147;-86
2022/10/18 00:48:45;;;;;;;76.55;32.28;;;13.90;99.90;;;;;;4856424;29;20056;-85
2022/10/18 00:51:11;;;;;;;76.32;32.20;;;13.80;99.90;;;;;;4873587;29;20175;-85
2022/10/18 00:53:37;;;;;;;58.65;29.77;;;13.90;99.90;;;;;;4856948;29;20453;-85
2022/10/18 00:56:03;;;;;;;81.30;31.92;;;13.80;99.90;;;;;;4873902;29;20045;-86
2022/10/18 00:58:29;;;;;;;88.22;33.83;;;13.80;99.90;;;;;;4855960;29;20048;-85
2022/10/18 01:00:54;;;;;;;62.72;29.30;;;13.80;99.90;;;;;;4858120;29;20440;-85
2022/10/18 01:03:23;;;;;;;125.95;37.45;;;13.80;99.90;;;;;;4872765;29;20482;-86
2022/10/18 01:05:48;;;;;;;203.60;33.65;;;13.80;99.90;;;;;;4859508;29;20048;-85
2022/10/18 01:08:31;;;;;;;379.08;44.10;;;13.70;99.90;;;;;;4872875;29;20471;-86
2022/10/18 01:11:03;;;;;;;151.68;34.55;;;13.80;99.90;;;;;;4860602;29;20592;-85
2022/10/18 01:13:47;;;;;;;127.75;37.15;;;13.60;99.90;;;;;;4872823;29;20127;-85
2022/10/18 01:16:20;;;;;;;86.20;30.77;;;13.60;99.90;;;;;;4873385;29;20043;-85
2022/10/18 01:19:14;;;;;;;213.55;42.53;;;13.60;99.90;;;;;;4873856;29;20453;-85
2022/10/18 01:21:49;;;;;;;81.32;32.30;;;13.60;99.90;;;;;;4872500;29;20371;-85
2022/10/18 01:24:25;;;;;;;73.07;30.52;;;13.50;99.90;;;;;;4874760;29;20092;-85
2022/10/18 01:27:05;;;;;;;68.43;31.98;;;13.50;99.90;;;;;;4859674;29;20347;-86
2022/10/18 01:29:56;;;;;;;61.65;29.27;;;13.40;99.90;;;;;;4872939;29;20037;-85
2022/10/18 01:32:27;;;;;;;79.80;31.13;;;13.40;99.90;;;;;;4857262;29;20303;-85
2022/10/18 01:34:58;;;;;;;59.58;28.05;;;13.40;99.90;;;;;;4870208;29;20060;-85
2022/10/18 01:37:26;;;;;;;56.70;27.08;;;13.40;99.90;;;;;;4859690;29;20048;-85
2022/10/18 01:39:55;;;;;;;319.70;48.17;;;13.50;99.90;;;;;;4856204;29;20048;-85
2022/10/18 01:42:21;;;;;;;80.07;31.02;;;13.50;99.90;;;;;;4879768;29;20463;-85
2022/10/18 01:44:50;;;;;;;95.80;33.75;;;13.60;99.90;;;;;;4855718;29;20424;-85
2022/10/18 01:47:18;;;;;;;119.57;35.95;;;13.50;99.90;;;;;;4857730;29;20115;-85
2022/10/18 01:49:44;;;;;;;93.25;33.90;;;13.50;99.90;;;;;;4871876;29;20086;-86
2022/10/18 01:52:16;;;;;;;81.13;33.78;;;13.40;99.90;;;;;;4855782;29;20072;-86
2022/10/18 01:54:47;;;;;;;79.00;32.33;;;13.50;99.90;;;;;;4868554;29;20052;-84
2022/10/18 01:57:21;;;;;;;116.80;35.67;;;13.50;99.90;;;;;;4856940;29;20044;-86
2022/10/18 02:00:02;;;;;;;274.08;50.92;;;13.50;99.90;;;;;;4858439;29;20113;-85
2022/10/18 02:02:55;;;;;;;135.15;38.25;;;13.50;99.90;;;;;;4871137;29;20099;-85
2022/10/18 02:05:48;;;;;;;243.70;45.03;;;13.60;99.90;;;;;;4886526;29;20526;-86
2022/10/18 02:08:31;;;;;;;199.07;42.72;;;13.60;99.90;;;;;;4857080;29;20040;-86
2022/10/18 02:11:08;;;;;;;227.55;46.85;;;13.70;99.90;;;;;;4869221;29;20052;-86
2022/10/18 02:13:51;;;;;;;391.98;55.65;;;13.70;99.90;;;;;;4856729;29;20182;-86
2022/10/18 02:16:49;;;;;;;293.25;46.72;;;13.70;99.90;;;;;;4871058;29;20048;-86
2022/10/18 02:19:45;;;;;;;397.85;53.13;;;13.80;99.90;;;;;;4870458;29;20075;-85
2022/10/18 02:22:11;;;;;;;;;;;13.80;99.90;;;;;;4877043;29;20107;-85
2022/10/18 02:24:41;;;;;;;351.15;46.70;;;13.80;99.90;;;;;;4856526;29;19943;-86
2022/10/18 02:27:08;;;;;;;324.05;47.40;;;13.90;99.90;;;;;;4857392;29;20463;-85
2022/10/18 02:29:34;;;;;;;363.58;49.15;;;13.90;99.90;;;;;;4873502;29;20203;-87
2022/10/18 02:32:13;;;;;;;175.18;37.70;;;13.90;99.90;;;;;;4870042;29;20491;-86
2022/10/18 02:34:42;;;;;;;260.50;43.65;;;13.90;99.90;;;;;;4875027;29;20048;-86
2022/10/18 02:37:10;;;;;;;157.93;38.97;;;14.10;99.90;;;;;;4871488;29;20371;-85
2022/10/18 02:39:47;;;;;;;223.07;49.47;;;14.00;99.90;;;;;;4869491;29;20048;-86
2022/10/18 02:42:14;;;;;;;165.45;39.17;;;14.10;99.90;;;;;;4871434;29;20346;-86
2022/10/18 02:44:42;;;;;;;317.30;49.60;;;14.00;99.90;;;;;;4868094;29;20531;-85
2022/10/18 02:47:10;;;;;;;159.13;42.85;;;14.00;99.90;;;;;;4856714;29;20108;-85
2022/10/18 02:49:35;;;;;;;413.65;54.45;;;14.10;99.90;;;;;;4854559;29;20080;-85
2022/10/18 02:52:01;;;;;;;244.73;41.10;;;14.10;99.90;;;;;;4871315;29;20083;-85
2022/10/18 02:54:27;;;;;;;379.30;46.83;;;14.00;99.90;;;;;;4849091;29;20051;-85
2022/10/18 02:56:52;;;;;;;393.27;49.15;;;14.10;99.90;;;;;;4858833;29;20559;-85
2022/10/18 02:59:18;;;;;;;296.05;45.63;;;14.20;99.90;;;;;;4872529;29;20033;-86
2022/10/18 03:01:45;;;;;;;347.60;45.35;;;14.10;99.90;;;;;;4854956;29;20555;-85
2022/10/18 03:04:10;;;;;;;249.80;39.45;;;14.20;99.90;;;;;;4851774;29;20049;-85
2022/10/18 03:06:39;;;;;;;647.42;66.57;;;14.10;99.90;;;;;;4857724;29;20044;-85
2022/10/18 03:09:05;;;;;;;355.20;41.08;;;14.10;99.90;;;;;;4856419;29;20048;-89
2022/10/18 03:11:31;;;;;;;385.20;47.00;;;14.20;99.90;;;;;;4854666;29;20108;-90
2022/10/18 03:13:57;;;;;;;364.75;46.97;;;14.20;99.90;;;;;;4860594;29;20052;-89
2022/10/18 03:16:24;;;;;;;209.43;36.50;;;14.20;99.90;;;;;;4860747;29;20305;-89
2022/10/18 03:18:49;;;;;;;293.05;39.60;;;14.30;99.90;;;;;;4858435;29;20428;-88
2022/10/18 03:21:18;;;;;;;247.35;37.80;;;14.20;99.90;;;;;;4856497;29;20442;-88
2022/10/18 03:23:44;;;;;;;284.88;37.25;;;14.20;99.90;;;;;;4858629;29;20195;-90
2022/10/18 03:26:10;;;;;;;207.05;34.22;;;14.20;99.90;;;;;;4857703;29;20069;-88
2022/10/18 03:28:35;;;;;;;173.80;34.13;;;14.30;99.90;;;;;;4875020;29;20179;-89
2022/10/18 03:31:03;;;;;;;376.85;46.65;;;14.30;99.90;;;;;;4872129;29;20043;-88
2022/10/18 03:33:30;;;;;;;243.93;37.13;;;14.30;99.90;;;;;;4891291;29;20049;-89
2022/10/18 03:35:55;;;;;;;276.95;40.25;;;14.20;99.90;;;;;;4875524;29;20478;-89
2022/10/18 03:38:21;;;;;;;232.07;35.35;;;14.30;99.90;;;;;;4862464;29;20054;-89
2022/10/18 03:40:47;;;;;;;173.27;31.92;;;14.20;99.90;;;;;;4875012;29;20587;-88
2022/10/18 03:43:13;;;;;;;198.43;32.75;;;14.20;99.90;;;;;;4862118;29;20273;-88
2022/10/18 03:45:39;;;;;;;198.85;34.00;;;14.20;99.90;;;;;;4875934;29;20048;-88
2022/10/18 03:48:05;;;;;;;293.45;36.05;;;14.20;99.90;;;;;;4875229;29;20060;-89
2022/10/18 03:50:31;;;;;;;155.32;29.77;;;14.20;99.90;;;;;;4861444;29;20083;-88
2022/10/18 03:52:56;;;;;;;178.20;32.78;;;14.20;99.90;;;;;;4876074;29;20083;-89
2022/10/18 03:55:22;;;;;;;311.20;42.40;;;14.20;99.90;;;;;;4860364;29;20428;-88
2022/10/18 03:57:48;;;;;;;118.28;27.65;;;14.10;99.90;;;;;;4861801;29;20063;-88
2022/10/18 04:00:14;;;;;;;259.25;36.20;;;14.20;99.90;;;;;;4876251;29;20096;-89
2022/10/18 04:02:40;;;;;;;170.18;28.77;;;14.10;99.90;;;;;;4875111;29;20048;-89
2022/10/18 04:05:07;;;;;;;238.63;32.28;;;14.20;99.90;;;;;;4858578;29;20130;-89
2022/10/18 04:07:34;;;;;;;224.10;30.25;;;14.10;99.90;;;;;;4872663;29;20053;-87
2022/10/18 04:10:00;;;;;;;186.63;31.35;;;14.10;99.90;;;;;;4861143;29;20132;-88
2022/10/18 04:12:25;;;;;;;169.73;30.02;;;14.10;99.90;;;;;;4873837;29;20155;-89
2022/10/18 04:14:51;;;;;;;181.85;28.95;;;14.10;99.90;;;;;;4874303;29;20039;-89
2022/10/18 04:17:17;;;;;;;150.65;28.00;;;14.10;99.90;;;;;;4871569;29;20450;-89
2022/10/18 04:19:42;;;;;;;167.52;26.88;;;14.10;99.90;;;;;;4865969;29;20043;-88
2022/10/18 04:22:10;;;;;;;244.25;31.77;;;14.00;99.90;;;;;;4863536;29;20047;-88
2022/10/18 04:24:36;;;;;;;203.63;29.67;;;14.00;99.90;;;;;;4856626;29;20040;-89
2022/10/18 04:27:04;;;;;;;227.43;33.22;;;14.00;99.90;;;;;;4878489;29;20047;-87
2022/10/18 04:29:29;;;;;;;207.02;31.90;;;14.00;99.90;;;;;;4873553;29;20286;-88
2022/10/18 04:31:55;;;;;;;373.45;45.95;;;13.90;99.90;;;;;;4864929;29;20319;-88
2022/10/18 04:34:21;;;;;;;190.48;27.48;;;13.90;99.90;;;;;;4858966;29;20463;-88
2022/10/18 04:36:46;;;;;;;110.38;26.30;;;13.90;99.90;;;;;;4878321;29;20494;-88
2022/10/18 04:39:12;;;;;;;217.18;33.72;;;13.90;99.90;;;;;;4857787;29;20065;-90
2022/10/18 04:41:38;;;;;;;398.15;43.63;;;13.90;99.90;;;;;;4859440;29;20052;-87
2022/10/18 04:44:04;;;;;;;152.95;25.77;;;13.90;99.90;;;;;;4868185;29;20036;-88
2022/10/18 04:46:30;;;;;;;401.75;41.38;;;13.90;99.90;;;;;;4858330;29;20046;-89
2022/10/18 04:48:56;;;;;;;263.90;31.20;;;13.90;99.90;;;;;;4871777;29;20052;-87
2022/10/18 04:51:21;;;;;;;249.30;32.05;;;13.80;99.90;;;;;;4858338;29;20123;-88
2022/10/18 04:53:47;;;;;;;318.67;38.13;;;13.80;99.90;;;;;;4878666;29;20055;-87
2022/10/18 04:56:13;;;;;;;178.32;27.17;;;13.80;99.90;;;;;;4856017;29;20135;-89
2022/10/18 04:58:39;;;;;;;236.13;34.72;;;13.80;99.90;;;;;;4873118;29;20040;-88
2022/10/18 05:01:05;;;;;;;267.02;36.10;;;13.80;99.90;;;;;;4873815;29;20040;-87
2022/10/18 05:03:31;;;;;;;155.93;26.50;;;13.80;99.90;;;;;;4856936;29;20392;-88
2022/10/18 05:05:57;;;;;;;139.45;27.63;;;13.80;99.90;;;;;;4873547;29;20058;-88
2022/10/18 05:08:22;;;;;;;178.82;28.40;;;13.80;99.90;;;;;;4871664;29;20131;-89
2022/10/18 05:10:48;;;;;;;135.70;28.58;;;13.80;99.90;;;;;;4869499;29;20104;-87
2022/10/18 05:13:14;;;;;;;205.40;32.05;;;13.70;99.90;;;;;;4859079;29;20508;-88
2022/10/18 05:15:40;;;;;;;223.80;28.02;;;13.70;99.90;;;;;;4858007;29;20357;-88
2022/10/18 05:18:05;;;;;;;246.80;31.70;;;13.70;99.90;;;;;;4871172;29;20044;-87
2022/10/18 05:20:31;;;;;;;139.32;24.73;;;13.60;99.90;;;;;;4874594;29;20046;-88
2022/10/18 05:22:57;;;;;;;384.60;39.95;;;13.60;99.90;;;;;;4871805;29;20050;-88
2022/10/18 05:25:23;;;;;;;285.40;31.70;;;13.60;99.90;;;;;;4873804;29;20040;-88
2022/10/18 05:27:49;;;;;;;414.88;35.38;;;13.60;99.90;;;;;;4874048;29;20045;-88
2022/10/18 05:30:14;;;;;;;323.50;27.55;;;13.50;99.90;;;;;;4870728;29;20091;-88
2022/10/18 05:32:40;;;;;;;142.95;20.02;;;13.60;99.90;;;;;;4859884;29;20068;-88
2022/10/18 05:35:06;;;;;;;165.65;21.17;;;13.60;99.90;;;;;;4871752;29;20407;-88
2022/10/18 05:37:32;;;;;;;240.48;28.10;;;13.50;99.90;;;;;;4857614;29;20448;-88
2022/10/18 05:39:57;;;;;;;150.23;20.08;;;13.60;99.90;;;;;;4870634;29;20176;-88
2022/10/18 05:42:23;;;;;;;218.20;25.67;;;13.50;99.90;;;;;;4855688;29;20503;-88
2022/10/18 05:44:49;;;;;;;169.57;17.98;;;13.50;99.90;;;;;;4873758;29;20484;-89
2022/10/18 05:47:14;;;;;;;193.93;19.95;;;13.50;99.90;;;;;;4885999;29;20060;-89
2022/10/18 05:49:40;;;;;;;184.63;20.15;;;13.40;99.90;;;;;;4854522;29;20084;-88
2022/10/18 05:52:06;;;;;;;172.70;17.17;;;13.40;99.90;;;;;;4858099;29;20440;-88
2022/10/18 05:54:31;;;;;;;92.75;15.25;;;13.40;99.90;;;;;;4857076;29;20119;-88
2022/10/18 05:56:57;;;;;;;135.32;15.70;;;13.30;99.90;;;;;;4854729;29;20076;-87
2022/10/18 05:59:23;;;;;;;100.53;14.05;;;13.40;99.90;;;;;;4854914;29;20059;-88
2022/10/18 06:01:48;;;;;;;94.45;12.10;;;13.30;99.90;;;;;;4872690;29;20044;-88
2022/10/18 06:04:16;;;;;;;130.60;15.10;;;13.40;99.90;;;;;;4870950;29;20048;-88
2022/10/18 06:06:42;;;;;;;89.00;12.43;;;13.30;99.90;;;;;;4854176;29;20207;-89
2022/10/18 06:09:08;;;;;;;134.38;14.32;;;13.30;99.90;;;;;;4870118;29;20541;-90
2022/10/18 06:11:41;;;;;;;102.35;12.57;;;13.20;99.90;;;;;;5113843;27;20502;-88
2022/10/18 06:14:08;;;;;;;136.43;14.40;;;13.20;99.90;;;;;;5079928;28;20040;-88
2022/10/18 06:16:34;;;;;;;189.90;18.40;;;13.20;99.90;;;;;;5065600;28;20132;-90
2022/10/18 06:18:59;;;;;;;58.40;11.10;;;13.10;99.90;;;;;;5084691;28;20132;-89
2022/10/18 06:21:25;;;;;;;54.03;10.65;;;13.10;99.90;;;;;;5084800;28;20047;-89
2022/10/18 06:23:54;;;;;;;66.55;11.48;;;13.00;99.90;;;;;;5064897;28;20031;-90
2022/10/18 06:26:20;;;;;;;46.38;11.05;;;13.00;99.90;;;;;;5084758;28;20072;-88
2022/10/18 06:28:46;;;;;;;48.53;10.73;;;13.00;99.90;;;;;;5066747;28;20032;-90
2022/10/18 06:31:12;;;;;;;35.63;9.88;;;13.00;99.90;;;;;;5064140;28;20093;-89
2022/10/18 06:33:38;;;;;;;27.63;8.82;;;12.90;99.90;;;;;;5065460;28;20514;-89
2022/10/18 06:36:06;;;;;;;16.33;8.45;;;12.90;99.90;;;;;;5066156;28;20127;-89
2022/10/18 06:38:35;;;;;;;111.93;13.35;;;12.90;99.90;;;;;;5064106;28;20214;-89
2022/10/18 06:41:01;;;;;;;192.35;16.15;;;12.70;99.90;;;;;;5093375;28;20036;-89
2022/10/18 06:43:26;;;;;;;50.08;10.77;;;12.70;99.90;;;;;;5083769;28;20040;-89
2022/10/18 06:45:53;;;;;;;54.20;10.52;;;12.70;99.90;;;;;;5069858;28;20051;-88
2022/10/18 06:48:19;;;;;;;35.65;10.57;;;12.70;99.90;;;;;;5065808;28;20415;-88
2022/10/18 06:50:58;;;;;;;38.13;10.73;;;12.70;99.90;;;;;;5068384;28;20112;-89
2022/10/18 06:53:25;;;;;;;26.00;10.35;;;12.70;99.90;;;;;;5085892;28;20132;-89
2022/10/18 06:56:07;;;;;;;29.77;10.35;;;12.80;99.90;;;;;;5086976;28;20031;-89
2022/10/18 06:58:34;;;;;;;119.68;14.75;;;12.70;99.90;;;;;;5084292;28;20403;-89
2022/10/18 07:01:09;;;;;;;99.45;13.68;;;12.80;99.90;;;;;;5085215;28;20036;-88
2022/10/18 07:03:34;;;;;;;;;;;12.70;99.90;;;;;;5063743;28;20110;-89
2022/10/18 07:06:07;;;;;;;93.63;13.45;;;12.90;99.90;;;;;;5081772;28;19932;-89
2022/10/18 07:08:33;;;;;;;81.82;13.55;;;12.80;99.90;;;;;;5080339;28;20044;-89
2022/10/18 07:10:59;;;;;;;123.05;15.02;;;12.90;99.90;;;;;;5071498;28;20079;-88
2022/10/18 07:13:29;;;;;;;77.57;11.55;;;13.00;99.90;;;;;;5066545;28;20853;-89
2022/10/18 07:16:04;;;;;;;76.78;10.63;;;13.00;99.90;;;;;;5082293;28;20075;-89
2022/10/18 07:18:32;;;;;;;103.13;11.88;;;12.90;99.90;;;;;;5078434;28;20040;-89
2022/10/18 07:21:00;;;;;;;99.80;12.15;;;12.80;99.90;;;;;;5062138;28;20040;-89
2022/10/18 07:23:26;;;;;;;66.88;10.02;;;12.90;99.90;;;;;;5068252;28;20044;-89
2022/10/18 07:25:52;;;;;;;66.47;12.80;;;12.90;99.90;;;;;;5052381;28;20494;-88
2022/10/18 07:28:17;;;;;;;57.72;11.05;;;12.80;99.90;;;;;;5070353;28;20028;-88
2022/10/18 07:30:43;;;;;;;36.95;12.60;;;12.90;99.90;;;;;;5069339;28;20125;-88
2022/10/18 07:33:09;;;;;;;46.28;14.75;;;13.00;99.90;;;;;;5051059;28;20273;-88
2022/10/18 07:35:34;;;;;;;43.03;16.50;;;13.00;99.90;;;;;;5064852;28;20043;-88
2022/10/18 07:38:00;;;;;;;43.85;18.23;;;13.00;99.90;;;;;;5068739;28;20418;-88
2022/10/18 07:40:25;;;;;;;42.08;18.50;;;13.00;99.90;;;;;;5050692;28;20040;-88
2022/10/18 07:42:51;;;;;;;64.05;19.85;;;13.00;99.90;;;;;;5068242;28;20039;-88
2022/10/18 07:45:17;;;;;;;66.03;19.55;;;13.10;99.90;;;;;;5053349;28;20151;-88
2022/10/18 07:47:42;;;;;;;47.72;20.80;;;12.90;99.90;;;;;;5065890;28;20044;-88
2022/10/18 07:50:08;;;;;;;40.40;20.05;;;13.10;99.90;;;;;;5066460;28;20119;-89
2022/10/18 07:52:34;;;;;;;39.00;19.60;;;13.30;99.90;;;;;;5048695;28;20036;-88
2022/10/18 07:54:59;;;;;;;44.30;19.90;;;13.30;99.90;;;;;;5048033;28;20071;-89
2022/10/18 07:57:25;;;;;;;35.45;19.25;;;13.30;99.90;;;;;;5049472;28;20550;-88
2022/10/18 07:59:55;;;;;;;35.25;21.77;;;13.20;99.90;;;;;;5081301;28;20400;-88
2022/10/18 08:02:24;;;;;;;46.13;26.55;;;13.50;99.90;;;;;;5064987;28;20107;-89
2022/10/18 08:04:49;;;;;;;40.40;25.98;;;13.20;99.90;;;;;;5063027;28;20044;-88
2022/10/18 08:07:15;;;;;;;32.78;20.42;;;13.20;99.90;;;;;;5066878;28;20040;-87
2022/10/18 08:09:41;;;;;;;26.30;16.10;;;13.40;99.90;;;;;;5066559;28;20091;-89
2022/10/18 08:12:06;;;;;;;17.65;11.32;;;13.50;99.90;;;;;;5048792;28;20051;-89
2022/10/18 08:14:35;;;;;;;17.33;10.30;;;13.50;99.90;;;;;;5050432;28;20134;-89
2022/10/18 08:17:01;;;;;;;19.08;10.15;;;13.50;99.90;;;;;;5063501;28;20067;-89
2022/10/18 08:19:26;;;;;;;14.63;9.23;;;13.60;99.90;;;;;;5047853;28;20067;-88
2022/10/18 08:21:52;;;;;;;17.33;9.80;;;13.70;99.90;;;;;;5049087;28;20165;-90
2022/10/18 08:24:18;;;;;;;20.92;9.15;;;13.50;99.90;;;;;;5050208;28;20336;-87
2022/10/18 08:26:43;;;;;;;21.45;8.63;;;13.40;99.90;;;;;;5052086;28;20047;-89
2022/10/18 08:29:10;;;;;;;11.43;7.63;;;13.50;99.90;;;;;;5065390;28;20040;-88
2022/10/18 08:31:36;;;;;;;13.77;7.93;;;13.40;99.90;;;;;;5051237;28;20040;-87
2022/10/18 08:34:01;;;;;;;13.63;7.60;;;13.30;99.90;;;;;;5062723;28;20060;-88
2022/10/18 08:36:27;;;;;;;9.75;7.40;;;13.40;99.90;;;;;;5048800;28;20093;-89
2022/10/18 08:38:53;;;;;;;13.77;8.13;;;13.30;99.90;;;;;;5049784;28;20312;-89
2022/10/18 08:41:36;;;;;;;13.82;8.30;;;13.30;99.90;;;;;;5082606;28;20040;-87
2022/10/18 08:44:34;;;;;;;14.77;9.15;;;13.30;99.90;;;;;;5079467;28;20032;-89
2022/10/18 08:47:13;;;;;;;13.43;9.52;;;13.30;99.90;;;;;;5033102;28;20522;-89
2022/10/18 08:49:50;;;;;;;17.55;10.32;;;13.40;99.90;;;;;;5045226;28;20087;-88
2022/10/18 08:52:48;;;;;;;18.08;11.23;;;13.30;99.90;;;;;;5068357;28;20044;-89
2022/10/18 08:55:35;;;;;;;15.27;11.05;;;13.40;99.90;;;;;;5079020;28;20115;-88
2022/10/18 08:58:21;;;;;;;15.60;11.15;;;13.50;99.90;;;;;;5062571;28;20566;-88
2022/10/18 09:00:53;;;;;;;18.35;10.68;;;13.50;99.90;;;;;;5065251;28;20044;-89
2022/10/18 09:03:47;;;;;;;19.50;10.02;;;13.50;99.90;;;;;;5065074;28;20499;-88
2022/10/18 09:06:29;;;;;;;15.80;10.00;;;13.50;99.90;;;;;;5065625;28;20071;-89
2022/10/18 09:09:17;;;;;;;15.45;9.90;;;13.80;99.90;;;;;;5068950;28;20031;-88
2022/10/18 09:12:01;;;;;;;12.75;7.85;;;13.90;99.90;;;;;;5063423;28;20406;-89
2022/10/18 09:14:42;;;;;;;14.87;5.37;;;14.10;99.90;;;;;;5065543;28;20052;-88
2022/10/18 09:17:23;;;;;;;8.63;3.78;;;14.20;99.90;;;;;;5064529;28;20287;-89
2022/10/18 09:19:58;;;;;;;10.23;3.85;;;14.30;99.90;;;;;;5063468;28;20044;-89
2022/10/18 09:22:49;;;;;;;11.38;3.80;;;14.20;99.90;;;;;;5080175;28;20036;-90
2022/10/18 09:25:25;;;;;;;10.75;3.50;;;14.40;99.90;;;;;;5062701;28;20036;-89
2022/10/18 09:27:58;;;;;;;13.90;3.65;;;14.20;99.90;;;;;;5068990;28;20055;-89
2022/10/18 09:30:45;;;;;;;9.18;3.30;;;14.20;99.90;;;;;;5083243;28;20048;-90
2022/10/18 09:33:26;;;;;;;9.63;3.70;;;14.30;99.90;;;;;;5065413;28;20316;-89
2022/10/18 09:35:56;;;;;;;11.07;3.70;;;14.30;99.90;;;;;;5041560;28;20040;-88
2022/10/18 09:38:29;;;;;;;13.93;3.80;;;14.20;99.90;;;;;;5052264;28;20041;-88
2022/10/18 09:41:04;;;;;;;12.38;3.63;;;14.40;99.90;;;;;;5065381;28;20045;-88
2022/10/18 09:43:50;;;;;;;12.98;4.18;;;14.50;99.90;;;;;;5045176;28;20048;-89
2022/10/18 09:46:20;;;;;;;12.52;3.28;;;14.50;99.90;;;;;;5053353;28;20063;-89
2022/10/18 09:49:01;;;;;;;14.27;4.35;;;14.60;99.90;;;;;;5065088;28;20035;-88
2022/10/18 09:51:35;;;;;;;9.73;4.20;;;14.70;99.90;;;;;;5059108;28;20040;-88
2022/10/18 09:54:20;;;;;;;9.90;3.13;;;14.70;99.90;;;;;;5057407;28;20036;-89
2022/10/18 09:56:49;;;;;;;9.50;3.63;;;14.70;99.90;;;;;;5079421;28;20036;-88
2022/10/18 09:59:28;;;;;;;8.77;3.50;;;14.80;99.90;;;;;;5050239;28;20052;-89
2022/10/18 10:01:54;;;;;;;11.98;2.60;;;14.80;99.90;;;;;;5057282;28;20160;-89
2022/10/18 10:04:23;;;;;;;18.98;3.85;;;14.80;99.90;;;;;;5052197;28;20119;-89
2022/10/18 10:06:50;;;;;;;9.95;2.50;;;15.00;99.90;;;;;;5051585;28;20042;-89
2022/10/18 10:09:20;;;;;;;7.72;2.58;;;15.10;99.90;;;;;;5079538;28;20082;-88
2022/10/18 10:11:50;;;;;;;13.13;2.78;;;15.00;99.90;;;;;;5049909;28;20056;-89
2022/10/18 10:14:22;;;;;;;8.93;2.30;;;15.00;99.90;;;;;;5049117;28;20154;-89
2022/10/18 10:17:22;;;;;;;10.40;2.35;;;15.10;99.90;;;;;;5046449;28;20043;-89
2022/10/18 10:20:16;;;;;;;11.35;2.05;;;15.10;99.90;;;;;;5028026;28;20421;-89
2022/10/18 10:22:44;;;;;;;10.70;2.97;;;15.20;99.90;;;;;;5063002;28;20032;-88
2022/10/18 10:25:31;;;;;;;19.30;2.88;;;15.10;99.90;;;;;;5065012;28;20491;-89
2022/10/18 10:28:47;;;;;;;10.48;2.47;;;15.10;99.90;;;;;;5067481;28;20040;-89
2022/10/18 10:31:33;;;;;;;11.60;2.63;;;15.30;99.90;;;;;;5049819;28;20036;-88
2022/10/18 10:34:12;;;;;;;9.95;2.30;;;15.30;99.90;;;;;;5058163;28;20039;-89
2022/10/18 10:36:52;;;;;;;11.27;2.00;;;15.70;99.90;;;;;;5067041;28;20040;-88
2022/10/18 10:39:20;;;;;;;7.60;1.67;;;15.50;99.90;;;;;;5047265;28;20177;-89
2022/10/18 10:41:55;;;;;;;10.98;2.20;;;15.30;99.90;;;;;;5068820;28;20036;-89
2022/10/18 10:44:26;;;;;;;8.05;1.80;;;15.40;99.90;;;;;;5065840;28;20090;-89
2022/10/18 10:46:53;;;;;;;7.28;2.05;;;15.50;99.90;;;;;;5047564;28;20338;-89
2022/10/18 10:49:20;;;;;;;11.70;1.85;;;15.70;99.90;;;;;;5047912;28;20043;-87
2022/10/18 10:51:53;;;;;;;8.43;1.67;;;15.90;99.90;;;;;;5066043;28;20032;-87
2022/10/18 10:54:23;;;;;;;7.70;1.60;;;15.90;99.90;;;;;;5044476;28;20040;-90
2022/10/18 10:57:10;;;;;;;8.07;1.67;;;16.00;99.90;;;;;;5052962;28;20442;-89
2022/10/18 10:59:42;;;;;;;6.30;1.40;;;16.00;99.90;;;;;;5047212;28;20559;-86
2022/10/18 11:02:17;;;;;;;7.03;1.45;;;16.10;99.90;;;;;;5068971;28;20064;-86
2022/10/18 11:04:44;;;;;;;10.93;1.65;;;15.90;99.90;;;;;;5062370;28;20123;-86
2022/10/18 11:07:38;;;;;;;6.18;1.10;;;15.80;99.90;;;;;;5069194;28;20115;-86
2022/10/18 11:10:09;;;;;;;6.03;1.70;;;15.50;99.90;;;;;;5066105;28;20059;-87
2022/10/18 11:12:40;;;;;;;7.68;1.42;;;15.50;99.90;;;;;;5068209;28;20495;-88
2022/10/18 11:15:09;;;;;;;8.88;1.63;;;15.70;99.90;;;;;;5068106;28;20173;-88
2022/10/18 11:18:13;;;;;;;7.55;1.50;;;15.50;99.90;;;;;;5084370;28;20576;-87
2022/10/18 11:20:55;;;;;;;6.68;1.20;;;15.70;99.90;;;;;;5066573;28;20048;-86
2022/10/18 11:23:28;;;;;;;9.77;1.45;;;15.90;99.90;;;;;;5069656;28;20143;-86
2022/10/18 11:26:00;;;;;;;8.05;1.40;;;16.10;99.90;;;;;;5069690;28;20047;-86
2022/10/18 11:28:56;;;;;;;10.48;1.65;;;16.40;99.90;;;;;;5071737;28;20043;-87
2022/10/18 11:32:03;;;;;;;6.03;1.50;;;16.50;99.90;;;;;;5077926;28;20041;-88
2022/10/18 11:34:50;;;;;;;9.50;2.00;;;16.70;99.90;;;;;;5080485;28;20499;-86
2022/10/18 11:37:28;;;;;;;9.18;1.80;;;16.90;99.90;;;;;;5051699;28;20502;-86
2022/10/18 11:40:33;;;;;;;6.55;1.52;;;17.00;99.90;;;;;;5049298;28;20074;-87
2022/10/18 11:43:23;;;;;;;7.05;1.75;;;16.90;99.90;;;;;;5061654;28;20039;-87
2022/10/18 11:46:04;;;;;;;7.07;1.40;;;17.20;99.90;;;;;;5069337;28;20090;-87
2022/10/18 11:48:44;;;;;;;10.30;2.30;;;17.10;99.90;;;;;;5064997;28;20047;-87
2022/10/18 11:51:31;;;;;;;5.93;1.50;;;17.00;99.90;;;;;;5060556;28;20392;-86
2022/10/18 11:54:44;;;;;;;5.13;1.17;;;17.00;99.90;;;;;;5060372;28;20041;-85
2022/10/18 11:57:39;;;;;;;7.75;1.52;;;16.30;99.90;;;;;;5025296;28;20055;-88
2022/10/18 12:00:19;;;;;;;7.15;1.55;;;16.10;99.90;;;;;;5060911;28;20067;-87
2022/10/18 12:03:13;;;;;;;7.25;1.52;;;15.90;99.90;;;;;;5068942;28;20126;-86
2022/10/18 12:05:42;;;;;;;6.80;1.50;;;15.80;99.90;;;;;;5083408;28;20813;-87
2022/10/18 12:08:15;;;;;;;13.02;1.80;;;16.30;99.90;;;;;;5067226;28;20040;-87
2022/10/18 12:10:43;;;;;;;9.38;1.83;;;16.60;99.90;;;;;;5074309;28;20057;-86
2022/10/18 12:13:16;;;;;;;5.80;1.23;;;16.90;99.90;;;;;;5070626;28;20085;-87
2022/10/18 12:15:42;;;;;;;7.93;1.95;;;17.20;99.90;;;;;;5066469;28;20037;-87
2022/10/18 12:18:19;;;;;;;10.70;1.80;;;17.30;99.90;;;;;;5087046;28;20142;-87
2022/10/18 12:20:58;;;;;;;8.05;1.60;;;17.10;99.90;;;;;;5065547;28;20039;-87
2022/10/18 12:23:50;;;;;;;8.90;1.50;;;17.40;99.90;;;;;;5063770;28;20044;-87
2022/10/18 12:26:16;;;;;;;5.68;1.55;;;17.80;99.90;;;;;;5066029;28;20433;-87
2022/10/18 12:28:54;;;;;;;7.85;1.88;;;17.80;99.90;;;;;;5047866;28;20094;-88
2022/10/18 12:31:25;;;;;;;5.20;1.30;;;17.70;99.90;;;;;;5064720;28;20032;-87
2022/10/18 12:33:59;;;;;;;6.25;1.85;;;17.80;99.90;;;;;;5047665;28;20122;-87
2022/10/18 12:36:47;;;;;;;7.72;1.67;;;17.40;99.90;;;;;;5050843;28;20467;-89
2022/10/18 12:39:22;;;;;;;9.48;1.80;;;17.00;99.90;;;;;;5059002;28;20033;-87
2022/10/18 12:41:52;;;;;;;9.55;1.75;;;16.70;99.90;;;;;;5067804;28;20388;-87
2022/10/18 12:44:33;;;;;;;6.57;1.60;;;16.60;99.90;;;;;;5044103;28;20039;-87
2022/10/18 12:47:01;;;;;;;6.32;1.60;;;16.60;99.90;;;;;;5057747;28;20177;-86
2022/10/18 12:49:30;;;;;;;6.13;1.40;;;17.00;99.90;;;;;;5066584;28;20556;-87
2022/10/18 12:52:18;;;;;;;9.40;1.80;;;17.00;99.90;;;;;;5051071;28;20637;-88